Flight Track Log - Related Links

Times and Time Zones

All times are in EDT time to prevent confusion due to time zone crossing. See the GJS3710 flight status page for this flight to view local times or setup timezone preferences in your user account.

Time Position Orientation Groundspeed Altitude Reporting Facility
EDT Latitude Longitude Course Direction KTS MPH feet Rate Location/Type
Sun 06:56:35 PM 38.8000 -90.4333 15° North 163 188 2,900  Level Gateway (St. Louis) TRACON
Sun 06:57:16 PM 38.8247 -90.4403 348° North 174 200 4,100 1,981 Climbing Kansas City Center
Sun 06:58:18 PM 38.8794 -90.4008 29° Northeast 214 246 6,300 2,537 Climbing Kansas City Center
Sun 06:59:00 PM 38.9223 -90.1394 18° North  Level FlightAware Approximate
Sun 06:59:19 PM 38.9369 -90.3525 33° Northeast 241 277 9,300  Level Kansas City Center
Sun 07:00:00 PM 39.0008 -90.1066 18° North  Level FlightAware Approximate
Sun 07:00:21 PM 38.9967 -90.2997 34° Northeast 255 293 11,700  Level Kansas City Center
Sun 07:01:00 PM 39.0804 -90.0788 14° North  Level FlightAware Approximate
Sun 07:01:23 PM 39.0672 -90.2367 35° Northeast 299 344 13,100  Level Kansas City Center
Sun 07:02:00 PM 39.1600 -90.0522 15° North  Level FlightAware Approximate
Sun 07:02:25 PM 39.1572 -90.1561 35° Northeast 324 373 15,500  Level Kansas City Center
Sun 07:03:27 PM 39.2342 -90.0883 34° Northeast 331 381 17,000 1,403 Climbing Kansas City Center
Sun 07:04:29 PM 39.3150 -90.0153 35° Northeast 348 400 18,400 1,297 Climbing Kansas City Center
Sun 07:06:32 PM 39.5044 -89.8906 27° Northeast 387 445 21,000 843 Climbing Kansas City Center
Sun 07:07:34 PM 39.6036 -89.8275 26° Northeast 396 456 21,000  Level Kansas City Center
Sun 07:08:36 PM 39.7183 -89.7539 26° Northeast 394 453 21,000  Level Kansas City Center
Sun 07:09:38 PM 39.8194 -89.6897 26° Northeast 401 461 21,000  Level Kansas City Center
Sun 07:10:40 PM 39.9106 -89.6072 35° Northeast 399 459 21,000  Level Kansas City Center
Sun 07:11:42 PM 39.9983 -89.5261 35° Northeast 391 450 21,000  Level Kansas City Center
Sun 07:12:43 PM 40.0869 -89.4417 36° Northeast 393 452 21,000  Level Kansas City Center
Sun 07:13:57 PM 40.1933 -89.3419 36° Northeast 399 459 21,000  Level Chicago Center
Sun 07:14:59 PM 40.3003 -89.2397 36° Northeast 400 460 21,000  Level Chicago Center
Sun 07:16:01 PM 40.3933 -89.1583 34° Northeast 408 470 21,000  Level Chicago Center
Sun 07:17:03 PM 40.4986 -89.1047 21° North 412 474 21,000  Level Chicago Center
Sun 07:18:05 PM 40.6050 -89.0519 21° North 411 473 21,000  Level Chicago Center
Sun 07:19:07 PM 40.7103 -88.9981 21° North 410 472 21,000 -48 Level Chicago Center
Sun 07:20:09 PM 40.8336 -88.9356 21° North 399 459 20,900 -629 Descending Chicago Center
Sun 07:21:11 PM 40.9222 -88.8894 21° North 350 403 19,700 -1,306 Descending Chicago Center
Sun 07:22:13 PM 41.0131 -88.8433 21° North 331 381 18,200 -1,500 Descending Chicago Center
Sun 07:23:15 PM 41.0942 -88.7997 22° Northeast 320 368 16,600 -1,452 Descending Chicago Center
Sun 07:24:17 PM 41.1742 -88.7592 21° North 310 357 15,200 -1,344 Descending Chicago Center
Sun 07:25:20 PM 41.2506 -88.7197 21° North 298 343 13,800 -1,065 Descending Chicago Center
Sun 07:26:21 PM 41.3297 -88.6800 21° North 303 349 13,000 -732 Descending Chicago Center
Sun 07:27:23 PM 41.4075 -88.6600 11° North 292 336 12,300 -480 Descending Chicago Center
Sun 07:28:26 PM 41.5083 -88.6897 348° North 307 353 12,000 -336 Descending Chicago Center
Sun 07:29:28 PM 41.5700 -88.6306 36° Northeast 296 341 11,600 -484 Descending Chicago Center
Sun 07:30:30 PM 41.6044 -88.5369 64° Northeast 281 323 11,000 -1,016 Descending Chicago Center
Sun 07:31:32 PM 41.6350 -88.4442 66° East 275 316 9,500 -1,452 Descending Chicago Center
Sun 07:32:34 PM 41.6642 -88.3494 68° East 274 315 8,000 -1,210 Descending Chicago Center
Sun 07:33:36 PM 41.6944 -88.2622 65° Northeast 262 302 7,000 -774 Descending Chicago Center
Sun 07:34:38 PM 41.7419 -88.1636 57° Northeast 267 307 6,400 -1,065 Descending Chicago Center
Sun 07:35:40 PM 41.7883 -88.0950 48° Northeast 258 297 4,800 -1,258 Descending Chicago Center
Sun 07:36:42 PM 41.8372 -88.0353 42° Northeast 248 285 3,800 -1,065 Descending Chicago Center
Sun 07:37:44 PM 41.8792 -87.9875 40° Northeast 223 257 2,600 -1,034 Descending Chicago Center
Sun 07:38:09 PM 41.9000 -87.9667 37° Northeast 140 161 2,300 -706 Descending Chicago TRACON
Sun 07:39:09 PM 41.9167 -87.9333 56° Northeast 126 145 1,600 -700 Descending Chicago TRACON
Sun 07:40:09 PM 41.9500 -87.9167 20° North 126 145 900 -700 Descending Chicago TRACON

Login

Don't have an account? Register now (free) for customized features, flight alerts, and more!